createdAt,value
2019-02-06T00:00:56.323Z,39.92
2019-02-06T00:03:24.613Z,44.67
2019-02-06T00:05:52.903Z,49.15
2019-02-06T00:08:21.393Z,51.28
2019-02-06T00:10:53.191Z,47.65
2019-02-06T00:13:21.526Z,48.73
2019-02-06T00:15:50.178Z,46.65
2019-02-06T00:18:18.433Z,49.10
2019-02-06T00:20:46.805Z,46.95
2019-02-06T00:23:15.070Z,43.02
2019-02-06T00:25:43.333Z,43.90
2019-02-06T00:28:11.590Z,44.67
2019-02-06T00:30:39.942Z,41.42
2019-02-06T00:33:08.587Z,38.98
2019-02-06T00:35:36.846Z,39.10
2019-02-06T00:38:05.623Z,39.18
2019-02-06T00:40:34.016Z,43.05
2019-02-06T00:43:02.288Z,44.70
2019-02-06T00:45:30.656Z,41.73
2019-02-06T00:47:59.286Z,45.70
2019-02-06T00:50:27.615Z,43.10
2019-02-06T00:52:55.899Z,43.30
2019-02-06T00:55:24.152Z,40.55
2019-02-06T00:57:52.423Z,40.38
2019-02-06T01:00:22.718Z,42.35
2019-02-06T01:02:52.351Z,39.35
2019-02-06T01:05:20.992Z,41.98
2019-02-06T01:07:49.350Z,40.95
2019-02-06T01:10:19.872Z,38.58
2019-02-06T01:12:48.162Z,38.92
2019-02-06T01:15:16.432Z,35.50
2019-02-06T01:17:45.972Z,39.60
2019-02-06T01:20:18.440Z,36.75
2019-02-06T01:22:46.697Z,37.23
2019-02-06T01:25:16.571Z,37.55
2019-02-06T01:27:44.828Z,36.30
2019-02-06T01:30:20.150Z,34.88
2019-02-06T01:32:48.456Z,36.65
2019-02-06T01:35:17.118Z,36.30
2019-02-06T01:37:45.428Z,34.08
2019-02-06T01:40:16.227Z,34.55
2019-02-06T01:42:44.481Z,33.10
2019-02-06T01:45:20.838Z,32.55
2019-02-06T01:47:49.463Z,35.78
2019-02-06T01:50:19.169Z,34.75
2019-02-06T01:52:47.430Z,36.28
2019-02-06T01:55:15.909Z,33.80
2019-02-06T01:57:44.158Z,35.92
2019-02-06T02:00:20.886Z,31.80
2019-02-06T02:02:49.152Z,33.15
2019-02-06T02:05:21.720Z,34.38
2019-02-06T02:07:50.315Z,34.80
2019-02-06T02:10:19.661Z,34.92
2019-02-06T02:12:48.093Z,34.50
2019-02-06T02:15:17.944Z,36.40
2019-02-06T02:17:46.208Z,30.37
2019-02-06T02:20:22.854Z,33.18
2019-02-06T02:22:51.141Z,30.05
2019-02-06T02:25:19.543Z,34.35
2019-02-06T02:27:47.815Z,35.73
2019-02-06T02:30:19.713Z,33.48
2019-02-06T02:32:48.364Z,35.85
2019-02-06T02:35:16.752Z,32.45
2019-02-06T02:37:45.002Z,31.93
2019-02-06T02:40:13.465Z,34.58
2019-02-06T02:42:41.718Z,31.10
2019-02-06T02:45:13.422Z,31.68
2019-02-06T02:47:41.691Z,31.93
2019-02-06T02:50:11.147Z,30.37
2019-02-06T02:52:39.453Z,33.65
2019-02-06T02:55:14.219Z,31.95
2019-02-06T02:57:42.845Z,31.93
2019-02-06T03:00:14.732Z,33.73
2019-02-06T03:02:47.929Z,34.73
2019-02-06T03:05:16.905Z,31.60
2019-02-06T03:07:47.071Z,35.10
2019-02-06T03:10:15.391Z,33.78
2019-02-06T03:12:43.647Z,35.55
2019-02-06T03:15:12.037Z,35.00
2019-02-06T03:17:40.576Z,31.77
2019-02-06T03:20:11.460Z,33.95
2019-02-06T03:22:39.698Z,30.88
2019-02-06T03:25:10.453Z,31.65
2019-02-06T03:27:38.740Z,36.65
2019-02-06T03:30:13.472Z,34.95
2019-02-06T03:32:41.886Z,32.90
2019-02-06T03:35:10.177Z,34.63
2019-02-06T03:37:40.106Z,32.80
2019-02-06T03:40:11.421Z,31.87
2019-02-06T03:42:39.717Z,34.70
2019-02-06T03:45:10.396Z,33.63
2019-02-06T03:47:38.945Z,29.75
2019-02-06T03:50:13.557Z,35.00
2019-02-06T03:55:10.433Z,31.10
2019-02-06T03:57:38.697Z,31.73
2019-02-06T04:00:13.166Z,35.30
2019-02-06T04:02:43.076Z,34.90
2019-02-06T04:05:12.206Z,33.02
2019-02-06T04:07:40.497Z,35.92
2019-02-06T04:10:14.618Z,38.35
2019-02-06T04:12:42.896Z,36.28
2019-02-06T04:15:12.089Z,36.73
2019-02-06T04:17:40.359Z,39.18
2019-02-06T04:20:11.870Z,38.05
2019-02-06T04:22:40.219Z,34.83
2019-02-06T04:25:09.645Z,36.75
2019-02-06T04:27:37.918Z,37.70
2019-02-06T04:30:09.778Z,40.92
2019-02-06T04:32:38.070Z,37.73
2019-02-06T04:35:08.795Z,38.58
2019-02-06T04:37:37.144Z,40.67
2019-02-06T04:40:11.734Z,39.25
2019-02-06T04:45:10.258Z,35.00
2019-02-06T04:47:38.585Z,36.68
2019-02-06T04:50:09.709Z,36.75
2019-02-06T04:52:37.987Z,39.20
2019-02-06T04:55:12.662Z,37.28
2019-02-06T04:57:40.924Z,37.70
2019-02-06T05:00:28.446Z,40.63
2019-02-06T05:02:56.712Z,36.55
2019-02-06T05:05:25.055Z,35.40
2019-02-06T05:07:53.312Z,39.08
2019-02-06T05:10:21.743Z,36.80
2019-02-06T05:12:50.024Z,38.28
2019-02-06T05:15:18.506Z,37.85
2019-02-06T05:17:46.790Z,37.58
2019-02-06T05:20:21.122Z,37.10
2019-02-06T05:22:49.370Z,39.23
2019-02-06T05:25:17.760Z,39.63
2019-02-06T05:27:46.218Z,38.92
2019-02-06T05:30:14.586Z,39.85
2019-02-06T05:32:43.096Z,40.03
2019-02-06T05:35:11.412Z,38.90
2019-02-06T05:37:39.679Z,41.65
2019-02-06T05:40:10.114Z,38.58
2019-02-06T05:42:38.391Z,40.23
2019-02-06T05:45:09.021Z,41.18
2019-02-06T05:47:39.753Z,41.63
2019-02-06T05:50:18.693Z,36.68
2019-02-06T05:52:48.602Z,39.25
2019-02-06T05:55:17.671Z,40.43
2019-02-06T05:57:46.502Z,40.88
2019-02-06T06:00:27.231Z,40.05
2019-02-06T06:02:55.874Z,40.17
2019-02-06T06:05:25.633Z,35.10
2019-02-06T06:07:53.909Z,39.10
2019-02-06T06:10:22.541Z,38.45
2019-02-06T06:12:57.166Z,39.30
2019-02-06T06:17:53.654Z,37.08
2019-02-06T06:20:21.943Z,40.52
2019-02-06T06:22:50.289Z,39.63
2019-02-06T06:25:22.126Z,41.83
2019-02-06T06:27:50.424Z,37.42
2019-02-06T06:30:21.716Z,36.50
2019-02-06T06:32:54.123Z,40.60
2019-02-06T06:35:22.448Z,40.12
2019-02-06T06:37:59.695Z,42.45
2019-02-06T06:40:22.569Z,37.78
2019-02-06T06:42:51.079Z,39.53
2019-02-06T06:45:24.640Z,36.53
2019-02-06T06:47:52.894Z,36.53
2019-02-06T06:50:25.677Z,41.25
2019-02-06T06:52:53.927Z,40.30
2019-02-06T06:55:22.619Z,41.70
2019-02-06T06:57:50.957Z,39.35
2019-02-06T07:00:27.475Z,37.03
2019-02-06T07:02:55.799Z,38.80
2019-02-06T07:05:24.073Z,37.95
2019-02-06T07:07:52.388Z,39.80
2019-02-06T07:10:20.993Z,38.42
2019-02-06T07:12:49.265Z,39.23
2019-02-06T07:15:20.852Z,39.25
2019-02-06T07:17:49.120Z,39.55
2019-02-06T07:20:18.975Z,32.00
2019-02-06T07:22:47.223Z,37.13
2019-02-06T07:25:19.631Z,37.42
2019-02-06T07:27:47.887Z,36.45
2019-02-06T07:30:19.470Z,37.30
2019-02-06T07:32:47.734Z,35.78
2019-02-06T07:35:16.131Z,34.90
2019-02-06T07:37:44.401Z,36.40
2019-02-06T07:40:14.743Z,34.98
2019-02-06T07:42:45.036Z,37.65
2019-02-06T07:45:15.731Z,34.53
2019-02-06T07:47:44.299Z,35.08
2019-02-06T07:50:33.078Z,35.23
2019-02-06T07:53:01.482Z,34.50
2019-02-06T07:55:29.825Z,34.55
2019-02-06T07:57:58.089Z,32.15
2019-02-06T08:00:26.359Z,32.35
2019-02-06T08:02:56.074Z,33.15
2019-02-06T08:05:24.329Z,34.18
2019-02-06T08:07:52.984Z,32.42
2019-02-06T08:10:26.194Z,33.20
2019-02-06T08:12:54.477Z,31.15
2019-02-06T08:15:22.932Z,31.65
2019-02-06T08:17:51.347Z,31.23
2019-02-06T08:20:21.559Z,32.55
2019-02-06T08:22:50.720Z,30.57
2019-02-06T08:25:20.583Z,30.27
2019-02-06T08:27:48.886Z,30.88
2019-02-06T08:30:44.660Z,31.68
2019-02-06T08:33:13.321Z,30.52
2019-02-06T08:35:41.570Z,30.12
2019-02-06T08:38:09.828Z,28.38
2019-02-06T08:40:38.097Z,29.77
2019-02-06T08:43:06.384Z,29.15
2019-02-06T08:45:36.676Z,30.88
2019-02-06T08:48:05.044Z,31.70
2019-02-06T08:50:33.300Z,29.70
2019-02-06T08:53:01.771Z,30.75
2019-02-06T08:55:34.137Z,30.77
2019-02-06T08:58:02.457Z,29.45
2019-02-06T09:00:39.126Z,29.37
2019-02-06T09:03:09.099Z,29.67
2019-02-06T09:05:37.399Z,30.40
2019-02-06T09:08:05.807Z,30.95
2019-02-06T09:10:34.071Z,29.85
2019-02-06T09:13:02.329Z,30.70
2019-02-06T09:15:30.579Z,30.10
2019-02-06T09:17:58.839Z,30.57
2019-02-06T09:20:28.445Z,28.65
2019-02-06T09:22:56.880Z,30.55
2019-02-06T09:25:27.259Z,27.93
2019-02-06T09:27:55.720Z,28.70
2019-02-06T09:30:32.810Z,27.82
2019-02-06T09:33:01.222Z,29.00
2019-02-06T09:35:29.503Z,29.27
2019-02-06T09:37:57.762Z,27.05
2019-02-06T09:40:27.878Z,28.90
2019-02-06T09:42:56.155Z,25.90
2019-02-06T09:45:24.463Z,28.85
2019-02-06T09:47:52.741Z,27.85
2019-02-06T09:50:27.162Z,25.30
2019-02-06T09:52:55.541Z,27.75
2019-02-06T09:55:23.778Z,27.45
2019-02-06T09:57:52.068Z,27.95
2019-02-06T10:00:25.537Z,26.75
2019-02-06T10:02:53.802Z,24.82
2019-02-06T10:05:22.515Z,24.98
2019-02-06T10:07:50.800Z,24.92
2019-02-06T10:10:21.591Z,26.73
2019-02-06T10:12:49.890Z,23.50
2019-02-06T10:15:23.694Z,25.68
2019-02-06T10:17:52.031Z,24.80
2019-02-06T10:20:24.504Z,23.65
2019-02-06T10:22:52.800Z,25.27
2019-02-06T10:25:21.181Z,22.62
2019-02-06T10:27:49.457Z,25.23
2019-02-06T10:30:26.724Z,23.25
2019-02-06T10:32:55.402Z,23.12
2019-02-06T10:35:23.827Z,22.35
2019-02-06T10:37:52.093Z,23.62
2019-02-06T10:40:20.643Z,22.37
2019-02-06T10:42:48.924Z,21.52
2019-02-06T10:45:21.071Z,23.20
2019-02-06T10:47:49.230Z,23.30
2019-02-06T10:50:23.026Z,21.30
2019-02-06T10:52:51.335Z,20.43
2019-02-06T10:55:19.670Z,20.70
2019-02-06T10:57:47.955Z,20.20
2019-02-06T11:00:22.208Z,19.62
2019-02-06T11:02:50.546Z,19.12
2019-02-06T11:05:18.900Z,18.52
2019-02-06T11:07:47.162Z,19.40
2019-02-06T11:10:18.782Z,18.45
2019-02-06T11:12:47.036Z,18.52
2019-02-06T11:15:15.499Z,18.40
2019-02-06T11:17:43.768Z,18.35
2019-02-06T11:20:21.576Z,17.05
2019-02-06T11:22:57.372Z,17.50
2019-02-06T11:25:22.920Z,17.23
2019-02-06T11:27:51.214Z,16.77
2019-02-06T11:30:25.035Z,17.25
2019-02-06T11:32:53.306Z,18.00
2019-02-06T11:35:21.754Z,16.45
2019-02-06T11:37:50.024Z,16.67
2019-02-06T11:40:20.758Z,16.65
2019-02-06T11:42:49.018Z,15.45
2019-02-06T11:45:19.864Z,17.95
2019-02-06T11:47:48.596Z,16.57
2019-02-06T11:50:20.039Z,17.50
2019-02-06T11:52:48.548Z,18.90
2019-02-06T11:55:19.402Z,16.67
2019-02-06T11:57:47.680Z,17.45
2019-02-06T12:00:20.313Z,16.93
2019-02-06T12:02:48.592Z,17.10
2019-02-06T12:05:16.868Z,15.98
2019-02-06T12:07:45.181Z,15.50
2019-02-06T12:10:16.534Z,16.48
2019-02-06T12:12:44.804Z,15.03
2019-02-06T12:15:18.738Z,14.63
2019-02-06T12:17:47.096Z,14.65
2019-02-06T12:20:22.961Z,15.25
2019-02-06T12:22:51.224Z,17.73
2019-02-06T12:25:19.583Z,16.25
2019-02-06T12:27:49.284Z,16.62
2019-02-06T12:30:31.464Z,15.72
2019-02-06T12:32:59.697Z,17.12
2019-02-06T12:35:28.035Z,17.50
2019-02-06T12:37:56.313Z,19.00
2019-02-06T12:40:24.558Z,17.23
2019-02-06T12:42:52.839Z,20.08
2019-02-06T12:45:23.622Z,20.70
2019-02-06T12:47:52.265Z,18.75
2019-02-06T12:50:22.008Z,21.37
2019-02-06T12:52:50.291Z,21.07
2019-02-06T12:55:24.149Z,23.00
2019-02-06T12:57:52.420Z,23.03
2019-02-06T13:00:26.281Z,22.20
2019-02-06T13:02:57.522Z,20.48
2019-02-06T13:05:24.973Z,20.82
2019-02-06T13:07:53.215Z,22.07
2019-02-06T13:10:33.483Z,22.02
2019-02-06T13:12:53.209Z,22.55
2019-02-06T13:15:21.644Z,21.95
2019-02-06T13:17:50.393Z,23.60
2019-02-06T13:20:26.934Z,22.70
2019-02-06T13:22:55.225Z,24.85
2019-02-06T13:25:23.547Z,26.27
2019-02-06T13:27:51.912Z,24.27
2019-02-06T13:30:28.531Z,25.08
2019-02-06T13:32:56.796Z,26.20
2019-02-06T13:35:25.145Z,24.70
2019-02-06T13:37:53.408Z,25.68
2019-02-06T13:40:24.304Z,25.52
2019-02-06T13:42:52.593Z,23.80
2019-02-06T13:45:26.581Z,23.65
2019-02-06T13:47:54.943Z,24.87
2019-02-06T13:50:24.028Z,25.90
2019-02-06T13:52:52.286Z,24.75
2019-02-06T13:55:20.595Z,23.00
2019-02-06T13:57:48.877Z,24.72
2019-02-06T14:00:25.647Z,26.17
2019-02-06T14:02:53.981Z,26.12
2019-02-06T14:05:24.793Z,26.02
2019-02-06T14:07:54.730Z,26.30
2019-02-06T14:10:25.292Z,24.57
2019-02-06T14:12:53.572Z,25.77
2019-02-06T14:15:25.315Z,25.17
2019-02-06T14:17:56.264Z,25.27
2019-02-06T14:20:24.534Z,25.10
2019-02-06T14:22:56.501Z,23.18
2019-02-06T14:25:49.084Z,25.77
2019-02-06T14:28:29.798Z,24.45
2019-02-06T14:31:34.602Z,25.43
2019-02-06T14:34:11.453Z,25.48
2019-02-06T14:36:42.990Z,24.15
2019-02-06T14:39:29.624Z,26.25
2019-02-06T14:42:04.122Z,24.90
2019-02-06T14:44:56.444Z,26.20
2019-02-06T14:47:27.994Z,24.75
2019-02-06T14:50:14.807Z,25.88
2019-02-06T14:52:49.348Z,24.50
2019-02-06T14:55:32.845Z,26.25
2019-02-06T14:58:31.446Z,25.90
2019-02-06T15:01:05.795Z,26.77
2019-02-06T15:03:48.645Z,26.77
2019-02-06T15:06:36.659Z,25.82
2019-02-06T15:09:32.172Z,25.30
2019-02-06T15:12:21.244Z,27.58
2019-02-06T15:15:20.266Z,26.02
2019-02-06T15:18:03.398Z,26.60
2019-02-06T15:20:50.029Z,25.35
2019-02-06T15:23:32.323Z,26.07
2019-02-06T15:26:00.763Z,25.88
2019-02-06T15:28:58.081Z,25.10
2019-02-06T15:31:44.476Z,24.27
2019-02-06T15:34:32.467Z,26.80
2019-02-06T15:37:53.639Z,24.43
2019-02-06T15:40:43.350Z,25.08
2019-02-06T15:43:50.866Z,24.92
2019-02-06T15:46:28.005Z,23.18
2019-02-06T15:49:11.665Z,25.77
2019-02-06T15:51:48.783Z,25.85
2019-02-06T15:54:29.323Z,25.30
2019-02-06T15:57:07.301Z,24.82
2019-02-06T16:00:12.437Z,25.08
2019-02-06T16:05:48.116Z,27.42
2019-02-06T16:08:31.531Z,27.32
2019-02-06T16:11:14.572Z,26.97
2019-02-06T16:13:53.558Z,26.68
2019-02-06T16:16:55.473Z,23.65
2019-02-06T16:19:48.456Z,27.10
2019-02-06T16:22:34.853Z,26.33
2019-02-06T16:25:15.714Z,28.10
2019-02-06T16:27:49.838Z,28.57
2019-02-06T16:30:23.968Z,28.30
2019-02-06T16:33:04.155Z,29.15
2019-02-06T16:35:53.678Z,30.95
2019-02-06T16:38:30.894Z,31.85
2019-02-06T16:41:09.155Z,31.02
2019-02-06T16:43:50.078Z,31.10
2019-02-06T16:46:45.624Z,33.60
2019-02-06T16:49:33.897Z,34.23
2019-02-06T16:52:11.271Z,35.00
2019-02-06T16:54:45.495Z,35.73
2019-02-06T16:57:37.994Z,38.28
2019-02-06T17:00:27.585Z,37.53
2019-02-06T17:03:17.363Z,39.03
2019-02-06T17:06:11.349Z,39.90
2019-02-06T17:09:00.950Z,42.03
2019-02-06T17:11:38.346Z,41.58
2019-02-06T17:14:18.670Z,44.10
2019-02-06T17:17:16.145Z,40.63
2019-02-06T17:20:09.031Z,44.67
2019-02-06T17:23:09.064Z,44.80
2019-02-06T17:25:59.963Z,39.13
2019-02-06T17:28:43.798Z,41.98
2019-02-06T17:31:15.418Z,45.30
2019-02-06T17:33:52.433Z,45.50
2019-02-06T17:36:48.363Z,44.15
2019-02-06T17:39:39.318Z,44.58
2019-02-06T17:42:16.169Z,45.70
2019-02-06T17:45:03.667Z,44.85
2019-02-06T17:47:40.772Z,46.37
2019-02-06T17:50:24.595Z,46.28
2019-02-06T17:53:13.954Z,46.80
2019-02-06T17:55:45.348Z,49.38
2019-02-06T17:58:16.506Z,51.68
2019-02-06T18:00:52.373Z,51.40
2019-02-06T18:03:20.730Z,50.98
2019-02-06T18:05:49.548Z,51.00
2019-02-06T18:08:19.483Z,50.75
2019-02-06T18:10:51.245Z,51.37
2019-02-06T18:13:19.486Z,51.58
2019-02-06T18:15:47.946Z,53.08
2019-02-06T18:18:16.226Z,51.68
2019-02-06T18:20:44.824Z,53.75
2019-02-06T18:23:14.800Z,56.70
2019-02-06T18:25:43.269Z,52.43
2019-02-06T18:28:12.010Z,51.98
2019-02-06T18:30:40.334Z,54.15
2019-02-06T18:33:08.634Z,54.35
2019-02-06T18:35:38.787Z,54.80
2019-02-06T18:38:15.070Z,52.93
2019-02-06T18:40:44.568Z,55.58
2019-02-06T18:43:12.908Z,54.65
2019-02-06T18:45:41.219Z,50.52
2019-02-06T18:48:10.441Z,55.63
2019-02-06T18:50:40.242Z,54.15
2019-02-06T18:53:08.988Z,50.15
2019-02-06T18:55:37.542Z,55.78
2019-02-06T18:58:07.677Z,57.62
2019-02-06T19:00:40.425Z,54.42
2019-02-06T19:03:20.567Z,53.63
2019-02-06T19:05:49.257Z,55.83
2019-02-06T19:08:17.566Z,52.05
2019-02-06T19:10:46.402Z,53.38
2019-02-06T19:13:14.689Z,55.80
2019-02-06T19:15:42.986Z,54.35
2019-02-06T19:18:13.224Z,56.68
2019-02-06T19:20:41.446Z,55.85
2019-02-06T19:23:13.743Z,52.10
2019-02-06T19:25:41.985Z,59.70
2019-02-06T19:28:10.276Z,60.52
2019-02-06T19:30:41.198Z,58.35
2019-02-06T19:33:10.101Z,56.35
2019-02-06T19:35:38.765Z,60.98
2019-02-06T19:38:08.735Z,59.25
2019-02-06T19:40:37.039Z,57.45
2019-02-06T19:43:05.384Z,55.25
2019-02-06T19:45:33.872Z,58.42
2019-02-06T19:48:02.175Z,58.35
2019-02-06T19:50:33.237Z,56.45
2019-02-06T19:53:01.657Z,52.67
2019-02-06T19:55:30.008Z,57.53
2019-02-06T19:57:58.312Z,54.73
2019-02-06T20:00:35.084Z,57.50
2019-02-06T20:03:04.237Z,56.65
2019-02-06T20:05:37.044Z,59.03
2019-02-06T20:08:02.734Z,57.83
2019-02-06T20:10:58.056Z,62.05
2019-02-06T20:13:26.345Z,60.60
2019-02-06T20:15:54.917Z,54.67
2019-02-06T20:18:25.413Z,58.63
2019-02-06T20:20:54.187Z,60.30
2019-02-06T20:23:23.141Z,59.48
2019-02-06T20:25:51.611Z,60.45
2019-02-06T20:28:19.955Z,61.77
2019-02-06T20:30:48.240Z,60.92
2019-02-06T20:33:17.029Z,58.42
2019-02-06T20:35:47.991Z,59.77
2019-02-06T20:38:16.370Z,58.30
2019-02-06T20:40:44.956Z,54.50
2019-02-06T20:43:22.102Z,60.55
2019-02-06T20:45:47.802Z,57.62
2019-02-06T20:48:16.081Z,59.93
2019-02-06T20:50:44.515Z,62.50
2019-02-06T20:53:13.185Z,60.12
2019-02-06T20:55:41.443Z,58.50
2019-02-06T20:58:09.731Z,59.23
2019-02-06T21:00:39.831Z,55.38
2019-02-06T21:03:08.096Z,60.85
2019-02-06T21:05:36.416Z,56.42
2019-02-06T21:08:05.577Z,57.08
2019-02-06T21:10:35.256Z,57.75
2019-02-06T21:13:03.516Z,61.85
2019-02-06T21:15:32.893Z,56.70
2019-02-06T21:18:01.332Z,61.37
2019-02-06T21:20:31.634Z,57.50
2019-02-06T21:22:59.594Z,63.87
2019-02-06T21:25:27.895Z,62.50
2019-02-06T21:27:56.191Z,66.10
2019-02-06T21:30:30.138Z,60.70
2019-02-06T21:32:58.401Z,65.37
2019-02-06T21:35:26.674Z,58.78
2019-02-06T21:37:55.316Z,66.75
2019-02-06T21:40:54.487Z,56.70
2019-02-06T21:43:22.772Z,56.90
2019-02-06T21:45:51.052Z,58.98
2019-02-06T21:48:22.241Z,60.98
2019-02-06T21:50:49.762Z,64.97
2019-02-06T21:53:18.039Z,67.95
2019-02-06T21:55:46.318Z,64.75
2019-02-06T21:58:14.590Z,64.32
2019-02-06T22:00:43.326Z,67.12
2019-02-06T22:03:11.615Z,59.50
2019-02-06T22:05:39.873Z,64.70
2019-02-06T22:08:08.176Z,62.40
2019-02-06T22:10:36.435Z,64.00
2019-02-06T22:13:05.614Z,68.65
2019-02-06T22:15:34.481Z,66.00
2019-02-06T22:18:02.766Z,64.20
2019-02-06T22:20:31.058Z,69.53
2019-02-06T22:22:59.325Z,67.45
2019-02-06T22:25:27.768Z,66.25
2019-02-06T22:27:56.095Z,71.75
2019-02-06T22:30:29.156Z,76.15
2019-02-06T22:32:57.400Z,68.67
2019-02-06T22:35:26.066Z,70.40
2019-02-06T22:37:54.334Z,63.75
2019-02-06T22:40:24.276Z,63.33
2019-02-06T22:42:52.555Z,63.68
2019-02-06T22:45:22.814Z,58.10
2019-02-06T22:47:51.138Z,66.35
2019-02-06T22:50:22.372Z,64.87
2019-02-06T22:52:50.675Z,63.70
2019-02-06T22:55:19.114Z,63.45
2019-02-06T22:57:47.375Z,63.63
2019-02-06T23:00:24.559Z,65.72
2019-02-06T23:02:52.865Z,59.67
2019-02-06T23:05:21.286Z,63.00
2019-02-06T23:07:49.565Z,60.12
2019-02-06T23:10:17.981Z,61.05
2019-02-06T23:12:46.317Z,62.95
2019-02-06T23:15:14.619Z,59.48
2019-02-06T23:17:43.168Z,64.75
2019-02-06T23:20:12.017Z,65.75
2019-02-06T23:22:40.295Z,61.58
2019-02-06T23:25:08.796Z,63.68
2019-02-06T23:27:37.069Z,61.88
2019-02-06T23:30:11.226Z,59.05
2019-02-06T23:32:39.533Z,65.42
2019-02-06T23:35:08.264Z,66.60
2019-02-06T23:37:36.717Z,61.50
2019-02-06T23:40:10.879Z,62.17
2019-02-06T23:42:39.157Z,67.50
2019-02-06T23:45:09.680Z,65.00
2019-02-06T23:47:38.229Z,60.83
2019-02-06T23:50:14.284Z,65.20
2019-02-06T23:52:42.554Z,59.73
2019-02-06T23:55:10.923Z,59.30
2019-02-06T23:57:39.221Z,61.83
